ADDS METAR Data INFO
IDs: Format: Raw Decoded Include TAF

Data at: 1932 UTC 19 Jul 2018

KO69 191915Z AUTO 00000KT 10SM CLR 24/14 A2994 RMK A01
KO69 191855Z AUTO 30005KT 10SM CLR 23/14 A2995 RMK A01
KO69 191835Z AUTO 29005KT 10SM CLR 21/13 A2996 RMK A01
KO69 191815Z AUTO VRB06KT 10SM CLR 21/13 A2995 RMK A01
KO69 191755Z AUTO VRB06KT 10SM CLR 20/13 A2996 RMK A01
KO69 191735Z AUTO VRB04KT 10SM CLR 19/13 A2996 RMK A01
KO69 191715Z AUTO VRB03KT 10SM CLR 18/14 A2997 RMK A01
KO69 191655Z AUTO 29005KT 10SM SCT010 16/14 A2997 RMK A01
KO69 191635Z AUTO 27007KT 10SM OVC008 16/13 A2997 RMK A01
KO69 191615Z AUTO 27006KT 10SM OVC007 15/13 A2997 RMK A01
KO69 191555Z AUTO 34004KT 10SM OVC006 14/14 A2998 RMK A01
KO69 191535Z AUTO 29006KT 9SM OVC006 14/13 A2997 RMK A01
KO69 191515Z AUTO VRB05KT 9SM OVC005 13/13 A2997 RMK A01
KO69 191455Z AUTO VRB05KT 9SM OVC004 13/13 A2996 RMK A01
KO69 191435Z AUTO 28008KT 8SM OVC004 13/13 A2996 RMK A01
KO69 191415Z AUTO VRB05KT 7SM OVC004 12/12 A2995 RMK A01
KO69 191355Z AUTO 29009KT 5SM BR OVC004 12/12 A2995 RMK A01
KO69 191335Z AUTO 29007KT 3SM BR OVC003 12/12 A2995 RMK A01
KO69 191315Z AUTO VRB05KT 2 1/2SM BR OVC003 12/12 A2995 RMK A01
KO69 191255Z AUTO 00000KT 2 1/2SM BR OVC003 12/12 A2995 RMK A01
KO69 191235Z AUTO 29006KT 3SM BR OVC003 12/12 A2995 RMK A01
KO69 191215Z AUTO 29004KT 3SM BR OVC003 12/12 A2994 RMK A01
KO69 191155Z AUTO VRB03KT 2 1/2SM BR OVC003 12/12 A2994 RMK A01
KO69 191135Z AUTO 00000KT 3SM BR OVC003 12/12 A2993 RMK A01
KO69 191115Z AUTO 33005KT 2 1/2SM BR OVC003 12/12 A2993 RMK A01
KO69 191055Z AUTO 33004KT 2SM BR OVC003 12/12 A2993 RMK A01 VIS 1 1/2V3
KO69 191035Z AUTO VRB04KT 3SM BR OVC003 12/12 A2993 RMK A01
KO69 191015Z AUTO VRB03KT 4SM BR OVC003 12/12 A2993 RMK A01
KO69 190955Z AUTO 28004KT 4SM BR OVC003 12/12 A2993 RMK A01
KO69 190935Z AUTO VRB04KT 4SM BR OVC003 12/12 A2993 RMK A01
KO69 190915Z AUTO 32005KT 6SM BR OVC003 13/13 A2993 RMK A01
KO69 190855Z AUTO 33005KT 5SM BR OVC003 13/13 A2993 RMK A01
KO69 190835Z AUTO VRB03KT 5SM BR OVC004 13/13 A2994 RMK A01
KO69 190815Z AUTO VRB04KT 5SM BR OVC003 13/13 A2994 RMK A01
KO69 190755Z AUTO VRB04KT 3SM BR OVC003 13/13 A2994 RMK A01
KO69 190735Z AUTO 33005KT 1 1/4SM BR OVC003 13/13 A2995 RMK A01
KO69 190715Z AUTO 32004KT 1 1/4SM BR OVC003 13/13 A2995 RMK A01
KO69 190655Z AUTO VRB04KT 2 1/2SM BR OVC003 13/13 A2995 RMK A01
KO69 190635Z AUTO 31005KT 2 1/2SM BR OVC003 13/13 A2995 RMK A01
KO69 190615Z AUTO VRB04KT 4SM BR OVC003 13/13 A2995 RMK A01
KO69 190555Z AUTO 31005KT 4SM BR OVC003 13/13 A2995 RMK A01
KO69 190535Z AUTO 32005G10KT 4SM BR OVC004 13/13 A2994 RMK A01
KO69 190515Z AUTO 30005G10KT 5SM BR OVC004 13/13 A2994 RMK A01
KO69 190455Z AUTO VRB06KT 6SM BR OVC004 13/13 A2994 RMK A01
KO69 190435Z AUTO 29006G11KT 4SM BR OVC005 13/13 A2993 RMK A01
KO69 190415Z AUTO 29009KT 270V330 5SM BR BKN005 BKN019 13/13 A2992 RMK A01
KO69 190355Z AUTO VRB06KT 8SM CLR 14/13 A2992 RMK A01
KO69 190335Z AUTO 30006G12KT 8SM CLR 14/13 A2992 RMK A01
KO69 190315Z AUTO 30006KT 9SM CLR 15/13 A2992 RMK A01
KO69 190255Z AUTO 30006G11KT 9SM CLR 16/13 A2992 RMK A01
KO69 190235Z AUTO 30007KT 10SM CLR 18/13 A2992 RMK A01
KO69 190215Z AUTO 31005G11KT 10SM CLR 19/14 A2992 RMK A01
KO69 190155Z AUTO 29009KT 10SM CLR 20/14 A2991 RMK A01
KO69 190135Z AUTO 30009G14KT 10SM CLR 21/14 A2991 RMK A01
KO69 190115Z AUTO 30008G14KT 10SM CLR 22/14 A2991 RMK A01
KO69 190055Z AUTO 29008KT 260V320 10SM CLR 23/14 A2992 RMK A01
KO69 190035Z AUTO 29010G15KT 10SM CLR 23/14 A2992 RMK A01
KO69 190015Z AUTO 29012KT 10SM CLR 24/15 A2992 RMK A01
KO69 182355Z AUTO 29011G16KT 10SM CLR 24/15 A2992 RMK A01
KO69 182335Z AUTO 29010G17KT 270V330 10SM CLR 25/15 A2993 RMK A01
KO69 182315Z AUTO 28010G16KT 10SM CLR 26/15 A2993 RMK A01
KO69 182255Z AUTO 29008G14KT 270V340 10SM CLR 26/16 A2993 RMK A01
KO69 182235Z AUTO 29009KT 270V330 10SM CLR 26/15 A2994 RMK A01
KO69 182215Z AUTO 30007G12KT 280V340 10SM CLR 27/16 A2994 RMK A01
KO69 182155Z AUTO 31006KT 10SM CLR 27/16 A2995 RMK A01
KO69 182135Z AUTO 26009KT 10SM CLR 28/15 A2995 RMK A01
KO69 182115Z AUTO 27010KT 10SM CLR 28/15 A2995 RMK A01
KO69 182055Z AUTO 27010KT 10SM CLR 29/16 A2995 RMK A01
KO69 182035Z AUTO 29007KT 270V330 10SM CLR 28/16 A2995 RMK A01
KO69 182015Z AUTO VRB06G11KT 10SM CLR 28/15 A2996 RMK A01
KO69 181955Z AUTO 26007KT 230V290 10SM CLR 28/15 A2996 RMK A01
KO69 181935Z AUTO VRB04KT 10SM CLR 27/15 A2997 RMK A01
KO69 181915Z AUTO 00000KT 10SM CLR 25/14 A2998 RMK A01
KO69 181855Z AUTO 00000KT 10SM CLR 25/15 A2999 RMK A01
KO69 181835Z AUTO 33003KT 10SM CLR 24/15 A2999 RMK A01
KO69 181815Z AUTO VRB03KT 10SM CLR 22/14 A2999 RMK A01
KO69 181755Z AUTO 00000KT 10SM CLR 21/14 A3000 RMK A01
KO69 181735Z AUTO 00000KT 10SM CLR 19/14 A2999 RMK A01
KO69 181715Z AUTO 00000KT 10SM CLR 19/14 A2999 RMK A01
KO69 181655Z AUTO 00000KT 10SM CLR 17/14 A2999 RMK A01
KO69 181635Z AUTO 00000KT 9SM BKN006 16/14 A3000 RMK A01
KO69 181615Z AUTO 00000KT 9SM OVC006 15/14 A3000 RMK A01
KO69 181555Z AUTO 00000KT 9SM OVC005 14/14 A3001 RMK A01
KO69 181535Z AUTO 00000KT 8SM OVC004 14/14 A3000 RMK A01
KO69 181515Z AUTO 00000KT 5SM BR OVC004 13/13 A3000 RMK A01
KO69 181455Z AUTO 26003KT 3SM BR OVC003 13/13 A2999 RMK A01
KO69 181435Z AUTO 30003KT 3SM BR OVC003 13/13 A2999 RMK A01
KO69 181415Z AUTO 30004KT 3SM BR OVC003 13/13 A2998 RMK A01
KO69 181355Z AUTO 00000KT 2 1/2SM BR OVC003 13/13 A2998 RMK A01
KO69 181335Z AUTO 27004KT 2SM BR OVC003 13/13 A2998 RMK A01
KO69 181315Z AUTO 00000KT 4SM BR OVC003 13/13 A2998 RMK A01
KO69 181255Z AUTO 29005KT 4SM BR OVC003 13/13 A2997 RMK A01
KO69 181235Z AUTO 00000KT 4SM BR OVC003 13/13 A2997 RMK A01
KO69 181215Z AUTO 27004KT 5SM BR OVC003 13/13 A2997 RMK A01
KO69 181155Z AUTO 00000KT 6SM BR OVC003 13/13 A2997 RMK A01
KO69 181135Z AUTO VRB03KT 6SM BR OVC003 13/13 A2997 RMK A01
KO69 181115Z AUTO 28004KT 5SM BR OVC003 13/13 A2997 RMK A01
KO69 181055Z AUTO VRB04KT 5SM BR OVC003 13/13 A2997 RMK A01
KO69 181035Z AUTO 32003KT 4SM BR OVC003 13/13 A2998 RMK A01
KO69 181015Z AUTO VRB04KT 4SM BR OVC003 13/13 A2998 RMK A01
KO69 180955Z AUTO 32004KT 4SM BR OVC003 13/13 A2998 RMK A01
KO69 180935Z AUTO 00000KT 7SM OVC003 13/13 A2998 RMK A01
KO69 180915Z AUTO VRB03KT 6SM BR OVC003 13/13 A2998 RMK A01
KO69 180855Z AUTO 00000KT 8SM OVC003 13/13 A2998 RMK A01
KO69 180835Z AUTO 32004KT 6SM BR OVC003 13/13 A2998 RMK A01
KO69 180815Z AUTO VRB05KT 6SM BR OVC003 13/13 A2998 RMK A01
KO69 180755Z AUTO VRB04KT 4SM BR OVC003 13/13 A2998 RMK A01
KO69 180735Z AUTO 30004KT 4SM BR OVC003 13/13 A2998 RMK A01